Time;durP1;ratioP1;P1;durP2;ratioP2;P2;SDS_P1;SDS_P2;PMS_P1;PMS_P2;Temp;Humidity;BMP_temperature;BMP_pressure;BME280_temperature;BME280_humidity;BME280_pressure;Samples;Min_cycle;Max_cycle;Signal;HPM_P1;HPM_P2
2022/04/16 00:00:29;;;;;;;3.40;3.20;;;;;;;;;;5096497;28;20539;-80
2022/04/16 00:02:57;;;;;;;3.30;3.10;;;;;;;;;;5095650;28;20471;-79
2022/04/16 00:05:24;;;;;;;3.10;2.90;;;;;;;;;;5094350;28;20451;-79
2022/04/16 00:10:46;;;;;;;3.53;3.23;;;;;;;;;;5130274;27;20564;-80
2022/04/16 00:13:13;;;;;;;3.30;3.00;;;;;;;;;;5129459;27;20434;-80
2022/04/16 00:15:40;;;;;;;4.03;3.63;;;;;;;;;;5118096;28;20910;-80
2022/04/16 00:18:07;;;;;;;3.00;2.80;;;;;;;;;;5109397;28;20443;-79
2022/04/16 00:20:35;;;;;;;3.20;3.00;;;;;;;;;;5109781;28;21021;-79
2022/04/16 00:23:02;;;;;;;3.70;3.37;;;;;;;;;;5109808;28;20444;-79
2022/04/16 00:25:34;;;;;;;3.57;3.27;;;;;;;;;;5109767;28;20455;-79
2022/04/16 00:28:02;;;;;;;3.57;3.37;;;;;;;;;;5109085;28;20439;-79
2022/04/16 00:30:35;;;;;;;3.43;3.17;;;;;;;;;;5109260;28;20483;-79
2022/04/16 00:33:02;;;;;;;3.37;3.17;;;;;;;;;;5109437;28;20439;-79
2022/04/16 00:35:30;;;;;;;3.50;3.20;;;;;;;;;;5109129;28;20470;-79
2022/04/16 00:37:57;;;;;;;3.40;3.20;;;;;;;;;;5109682;28;20581;-80
2022/04/16 00:40:24;;;;;;;3.83;3.53;;;;;;;;;;5109173;28;20755;-79
2022/04/16 00:42:51;;;;;;;3.87;3.60;;;;;;;;;;5109299;28;20443;-79
2022/04/16 00:45:20;;;;;;;3.60;3.30;;;;;;;;;;5108875;28;20470;-80
2022/04/16 00:47:47;;;;;;;3.40;3.20;;;;;;;;;;5109505;28;20442;-79
2022/04/16 00:50:14;;;;;;;3.87;3.57;;;;;;;;;;5109292;28;20471;-80
2022/04/16 00:52:43;;;;;;;3.20;3.00;;;;;;;;;;5109254;28;20946;-80
2022/04/16 00:55:11;;;;;;;3.20;3.00;;;;;;;;;;5109801;28;20471;-79
2022/04/16 00:57:39;;;;;;;3.80;3.50;;;;;;;;;;5110458;28;20458;-80
2022/04/16 01:00:07;;;;;;;3.53;3.33;;;;;;;;;;5109547;28;20478;-79
2022/04/16 01:02:36;;;;;;;2.97;2.83;;;;;;;;;;5110157;28;20447;-80
2022/04/16 01:05:04;;;;;;;3.67;2.97;;;;;;;;;;5110073;28;20463;-81
2022/04/16 01:07:31;;;;;;;3.57;3.27;;;;;;;;;;5109306;28;20436;-81
2022/04/16 01:09:59;;;;;;;3.37;3.17;;;;;;;;;;5110079;28;20478;-81
2022/04/16 01:12:26;;;;;;;2.93;2.73;;;;;;;;;;5109428;28;20447;-82
2022/04/16 01:14:53;;;;;;;3.13;2.83;;;;;;;;;;5109144;28;20532;-79
2022/04/16 01:17:20;;;;;;;2.90;2.70;;;;;;;;;;5109374;28;20450;-79
2022/04/16 01:19:48;;;;;;;2.90;2.80;;;;;;;;;;5122372;28;20439;-79
2022/04/16 01:22:16;;;;;;;3.53;3.33;;;;;;;;;;5100760;28;20805;-79
2022/04/16 01:24:48;;;;;;;3.13;2.83;;;;;;;;;;5094801;28;20463;-79
2022/04/16 01:27:15;;;;;;;3.00;2.80;;;;;;;;;;5095643;28;20971;-79
2022/04/16 01:29:44;;;;;;;3.40;3.10;;;;;;;;;;5095230;28;20487;-80
2022/04/16 01:32:11;;;;;;;3.27;3.07;;;;;;;;;;5095176;28;20471;-81
2022/04/16 01:34:38;;;;;;;3.37;3.17;;;;;;;;;;5094681;28;20462;-80
2022/04/16 01:37:05;;;;;;;3.47;3.17;;;;;;;;;;5095114;28;20444;-80
2022/04/16 01:39:33;;;;;;;3.07;2.87;;;;;;;;;;5094901;28;20616;-81
2022/04/16 01:42:01;;;;;;;3.77;3.47;;;;;;;;;;5095380;28;20450;-78
2022/04/16 01:44:30;;;;;;;3.23;3.03;;;;;;;;;;5094748;28;20841;-79
2022/04/16 01:46:57;;;;;;;4.23;3.93;;;;;;;;;;5095265;28;20466;-80
2022/04/16 01:49:26;;;;;;;3.50;3.27;;;;;;;;;;5095165;28;20522;-79
2022/04/16 01:51:53;;;;;;;5.13;4.63;;;;;;;;;;5097758;28;20459;-79
2022/04/16 01:54:20;;;;;;;4.60;4.17;;;;;;;;;;5101073;28;20448;-80
2022/04/16 01:56:47;;;;;;;3.77;3.47;;;;;;;;;;5099490;28;20965;-79
2022/04/16 01:59:16;;;;;;;4.10;3.80;;;;;;;;;;5099200;28;20436;-79
2022/04/16 02:01:45;;;;;;;4.00;3.70;;;;;;;;;;5094210;28;20436;-79
2022/04/16 02:04:12;;;;;;;3.80;3.50;;;;;;;;;;5094550;28;20450;-79
2022/04/16 02:06:39;;;;;;;3.57;3.37;;;;;;;;;;5106131;28;20499;-80
2022/04/16 02:09:06;;;;;;;3.57;3.37;;;;;;;;;;5105149;28;20447;-80
2022/04/16 02:11:33;;;;;;;3.77;3.47;;;;;;;;;;5101220;28;20444;-78
2022/04/16 02:14:02;;;;;;;3.73;3.53;;;;;;;;;;5099742;28;20428;-80
2022/04/16 02:16:30;;;;;;;3.43;3.20;;;;;;;;;;5095047;28;20468;-78
2022/04/16 02:19:00;;;;;;;3.27;3.07;;;;;;;;;;5093879;28;20439;-79
2022/04/16 02:21:27;;;;;;;3.80;3.10;;;;;;;;;;5093395;28;20450;-79
2022/04/16 02:23:54;;;;;;;3.80;3.50;;;;;;;;;;5095182;28;20444;-79
2022/04/16 02:26:21;;;;;;;3.67;3.37;;;;;;;;;;5097102;28;20456;-80
2022/04/16 02:28:48;;;;;;;3.67;3.37;;;;;;;;;;5096025;28;20497;-78
2022/04/16 02:31:16;;;;;;;3.47;3.23;;;;;;;;;;5096320;28;20518;-79
2022/04/16 02:33:44;;;;;;;2.90;2.70;;;;;;;;;;5092873;28;20443;-79
2022/04/16 02:36:11;;;;;;;3.93;3.53;;;;;;;;;;5093183;28;20456;-79
2022/04/16 02:38:40;;;;;;;3.47;3.27;;;;;;;;;;5093214;28;20436;-79
2022/04/16 02:41:07;;;;;;;3.93;3.60;;;;;;;;;;5093151;28;20521;-80
2022/04/16 02:43:34;;;;;;;3.83;3.53;;;;;;;;;;5092713;28;20459;-78
2022/04/16 02:48:47;;;;;;;4.30;4.00;;;;;;;;;;5093146;28;20395;-79
2022/04/16 02:51:14;;;;;;;3.57;3.27;;;;;;;;;;5092756;28;20484;-79
2022/04/16 02:53:41;;;;;;;3.60;3.30;;;;;;;;;;5092293;28;20467;-78
2022/04/16 02:56:08;;;;;;;3.83;3.63;;;;;;;;;;5092777;28;20512;-77
2022/04/16 02:58:35;;;;;;;3.53;3.33;;;;;;;;;;5093212;28;20444;-79
2022/04/16 03:01:03;;;;;;;4.00;3.80;;;;;;;;;;5092596;28;20443;-79
2022/04/16 03:03:30;;;;;;;3.73;3.43;;;;;;;;;;5092694;28;20479;-79
2022/04/16 03:05:59;;;;;;;3.70;3.40;;;;;;;;;;5092496;28;20459;-79
2022/04/16 03:08:26;;;;;;;4.07;3.87;;;;;;;;;;5093099;28;20438;-79
2022/04/16 03:10:54;;;;;;;3.43;3.23;;;;;;;;;;5092524;28;20463;-78
2022/04/16 03:13:21;;;;;;;3.80;3.50;;;;;;;;;;5092084;28;20448;-79
2022/04/16 03:18:32;;;;;;;4.30;4.00;;;;;;;;;;5092512;28;20952;-79
2022/04/16 03:21:01;;;;;;;3.90;3.70;;;;;;;;;;5092430;28;20814;-78
2022/04/16 03:23:28;;;;;;;3.90;3.70;;;;;;;;;;5092435;28;20948;-78
2022/04/16 03:25:56;;;;;;;4.20;3.80;;;;;;;;;;5092436;28;20503;-80
2022/04/16 03:28:24;;;;;;;4.40;4.00;;;;;;;;;;5092396;28;20447;-80
2022/04/16 03:30:51;;;;;;;4.00;3.70;;;;;;;;;;5091896;28;20472;-79
2022/04/16 03:33:18;;;;;;;4.50;4.10;;;;;;;;;;5091641;28;20915;-78
2022/04/16 03:35:45;;;;;;;5.00;4.40;;;;;;;;;;5092496;28;20513;-79
2022/04/16 03:38:14;;;;;;;4.10;3.80;;;;;;;;;;5092467;28;20551;-79
2022/04/16 03:40:41;;;;;;;3.60;3.37;;;;;;;;;;5091726;28;20515;-78
2022/04/16 03:43:08;;;;;;;4.60;4.27;;;;;;;;;;5092056;28;20451;-79
2022/04/16 03:45:36;;;;;;;7.27;4.67;;;;;;;;;;5092035;28;20464;-79
2022/04/16 03:48:05;;;;;;;4.23;3.93;;;;;;;;;;5091801;28;20428;-78
2022/04/16 03:50:32;;;;;;;4.30;4.00;;;;;;;;;;5093226;28;20498;-79
2022/04/16 03:53:00;;;;;;;4.90;4.50;;;;;;;;;;5092768;28;20451;-78
2022/04/16 04:01:00;;;;;;;4.10;3.80;;;;;;;;;;5091452;28;20941;-78
2022/04/16 04:03:27;;;;;;;4.93;4.63;;;;;;;;;;5091706;28;20431;-78
2022/04/16 04:05:56;;;;;;;5.30;4.90;;;;;;;;;;5091251;28;20456;-78
2022/04/16 04:08:24;;;;;;;4.90;4.50;;;;;;;;;;5092184;28;20447;-78
2022/04/16 04:10:52;;;;;;;3.90;3.60;;;;;;;;;;5091487;28;20624;-79
2022/04/16 04:13:20;;;;;;;5.10;4.40;;;;;;;;;;5091407;28;20451;-79
2022/04/16 04:15:47;;;;;;;4.47;4.10;;;;;;;;;;5092822;28;20475;-79
2022/04/16 04:18:14;;;;;;;3.77;3.47;;;;;;;;;;5094367;28;20828;-78
2022/04/16 04:20:41;;;;;;;3.67;3.40;;;;;;;;;;5093186;28;20526;-79
2022/04/16 04:23:09;;;;;;;4.07;3.67;;;;;;;;;;5091446;28;20927;-79
2022/04/16 04:25:36;;;;;;;3.73;3.53;;;;;;;;;;5094108;28;20571;-78
2022/04/16 04:28:05;;;;;;;5.07;4.40;;;;;;;;;;5092663;28;20447;-78
2022/04/16 04:30:33;;;;;;;5.23;4.80;;;;;;;;;;5091324;28;20475;-79
2022/04/16 04:33:00;;;;;;;3.87;3.67;;;;;;;;;;5091043;28;20606;-79
2022/04/16 04:35:27;;;;;;;4.20;3.90;;;;;;;;;;5091460;28;20460;-79
2022/04/16 04:37:54;;;;;;;4.23;3.93;;;;;;;;;;5091111;28;20970;-78
2022/04/16 04:40:21;;;;;;;3.60;3.40;;;;;;;;;;5092408;28;20489;-79
2022/04/16 04:42:48;;;;;;;6.63;4.70;;;;;;;;;;5093707;28;20444;-79
2022/04/16 04:45:17;;;;;;;4.13;3.83;;;;;;;;;;5091761;28;20471;-78
2022/04/16 04:47:45;;;;;;;4.10;3.80;;;;;;;;;;5091728;28;20450;-78
2022/04/16 04:50:12;;;;;;;4.30;4.00;;;;;;;;;;5090843;28;20471;-79
2022/04/16 04:52:39;;;;;;;4.20;3.90;;;;;;;;;;5091267;28;20431;-79
2022/04/16 04:55:08;;;;;;;4.17;3.80;;;;;;;;;;5093057;28;20736;-79
2022/04/16 04:57:35;;;;;;;4.20;3.90;;;;;;;;;;5095418;28;20473;-79
2022/04/16 05:00:02;;;;;;;4.80;4.40;;;;;;;;;;5094668;28;20452;-78
2022/04/16 05:02:38;;;;;;;4.23;3.93;;;;;;;;;;5095577;28;20443;-79
2022/04/16 05:05:05;;;;;;;4.97;4.57;;;;;;;;;;5107669;28;20950;-77
2022/04/16 05:07:32;;;;;;;4.57;4.23;;;;;;;;;;5106051;28;20527;-78
2022/04/16 05:09:59;;;;;;;4.83;4.53;;;;;;;;;;5100825;28;20456;-78
2022/04/16 05:12:26;;;;;;;4.70;4.40;;;;;;;;;;5095287;28;20873;-78
2022/04/16 05:14:53;;;;;;;4.80;4.40;;;;;;;;;;5095298;28;20464;-79
2022/04/16 05:17:20;;;;;;;4.10;3.80;;;;;;;;;;5094528;28;20448;-79
2022/04/16 05:19:49;;;;;;;4.30;4.00;;;;;;;;;;5094847;28;20443;-78
2022/04/16 05:22:16;;;;;;;5.10;4.60;;;;;;;;;;5095072;28;20843;-79
2022/04/16 05:24:43;;;;;;;5.60;4.20;;;;;;;;;;5094687;28;20474;-79
2022/04/16 05:27:10;;;;;;;4.43;4.10;;;;;;;;;;5094708;28;20439;-79
2022/04/16 05:29:56;;;;;;;4.37;3.97;;;;;;;;;;5094934;28;20448;-79
2022/04/16 05:32:23;;;;;;;5.07;4.67;;;;;;;;;;5098586;28;20995;-79
2022/04/16 05:34:52;;;;;;;4.60;4.30;;;;;;;;;;5095497;28;20454;-78
2022/04/16 05:37:19;;;;;;;5.27;4.77;;;;;;;;;;5096113;28;20432;-78
2022/04/16 05:39:46;;;;;;;4.90;4.50;;;;;;;;;;5094597;28;20520;-79
2022/04/16 05:42:13;;;;;;;4.57;4.20;;;;;;;;;;5095647;28;20452;-80
2022/04/16 05:44:40;;;;;;;4.63;4.23;;;;;;;;;;5102007;28;20482;-79
2022/04/16 05:47:07;;;;;;;4.60;4.20;;;;;;;;;;5093765;28;20448;-78
2022/04/16 05:49:34;;;;;;;4.70;4.40;;;;;;;;;;5093920;28;20448;-78
2022/04/16 05:52:03;;;;;;;4.20;3.90;;;;;;;;;;5093114;28;20487;-79
2022/04/16 05:54:30;;;;;;;4.57;4.27;;;;;;;;;;5094144;28;20447;-79
2022/04/16 05:56:57;;;;;;;4.87;4.57;;;;;;;;;;5093680;28;20546;-79
2022/04/16 05:59:24;;;;;;;5.07;4.67;;;;;;;;;;5093381;28;20448;-78
2022/04/16 06:01:51;;;;;;;4.33;4.03;;;;;;;;;;5093828;28;20440;-79
2022/04/16 06:04:18;;;;;;;5.03;4.63;;;;;;;;;;5093300;28;20440;-78
2022/04/16 06:06:46;;;;;;;5.23;4.73;;;;;;;;;;5093430;28;20912;-79
2022/04/16 06:09:14;;;;;;;5.43;5.00;;;;;;;;;;5094281;28;20447;-79
2022/04/16 06:11:42;;;;;;;4.90;4.60;;;;;;;;;;5094119;28;20483;-79
2022/04/16 06:14:10;;;;;;;4.87;4.57;;;;;;;;;;5094068;28;20439;-78
2022/04/16 06:16:37;;;;;;;4.67;4.27;;;;;;;;;;5093853;28;20510;-78
2022/04/16 06:19:04;;;;;;;4.50;4.20;;;;;;;;;;5101044;28;20448;-79
2022/04/16 06:21:31;;;;;;;5.97;5.40;;;;;;;;;;5110978;28;20509;-78
2022/04/16 06:23:58;;;;;;;6.07;5.07;;;;;;;;;;5111237;28;20447;-77
2022/04/16 06:26:27;;;;;;;4.90;4.60;;;;;;;;;;5108637;28;20474;-79
2022/04/16 06:28:54;;;;;;;5.60;5.20;;;;;;;;;;5104179;28;20469;-78
2022/04/16 06:31:22;;;;;;;5.57;5.17;;;;;;;;;;5107502;28;20491;-79
2022/04/16 06:33:49;;;;;;;5.03;4.63;;;;;;;;;;5100783;28;20459;-79
2022/04/16 06:36:16;;;;;;;7.40;4.53;;;;;;;;;;5094031;28;20833;-78
2022/04/16 06:38:43;;;;;;;5.33;4.90;;;;;;;;;;5094562;28;20448;-79
2022/04/16 06:41:10;;;;;;;5.17;4.77;;;;;;;;;;5094294;28;20467;-78
2022/04/16 06:43:38;;;;;;;5.43;5.03;;;;;;;;;;5095306;28;20930;-78
2022/04/16 06:46:05;;;;;;;5.20;4.80;;;;;;;;;;5093294;28;20460;-78
2022/04/16 06:48:32;;;;;;;5.43;4.93;;;;;;;;;;5093754;28;20471;-79
2022/04/16 06:50:59;;;;;;;5.27;4.87;;;;;;;;;;5093302;28;20486;-79
2022/04/16 06:53:27;;;;;;;5.37;4.97;;;;;;;;;;5092605;28;20454;-78
2022/04/16 06:55:54;;;;;;;5.43;5.03;;;;;;;;;;5093384;28;20496;-79
2022/04/16 06:58:21;;;;;;;7.30;4.90;;;;;;;;;;5094248;28;20427;-78
2022/04/16 07:00:49;;;;;;;5.23;4.83;;;;;;;;;;5093267;28;20428;-79
2022/04/16 07:03:17;;;;;;;5.00;4.70;;;;;;;;;;5092460;28;20448;-79
2022/04/16 07:05:44;;;;;;;5.53;5.03;;;;;;;;;;5092223;28;20455;-79
2022/04/16 07:08:11;;;;;;;5.67;5.27;;;;;;;;;;5094026;28;20474;-79
2022/04/16 07:10:39;;;;;;;6.30;5.80;;;;;;;;;;5092882;28;20454;-79
2022/04/16 07:13:06;;;;;;;5.77;5.27;;;;;;;;;;5092873;28;20497;-80
2022/04/16 07:15:33;;;;;;;6.40;5.80;;;;;;;;;;5095688;28;20460;-79
2022/04/16 07:18:02;;;;;;;5.57;5.17;;;;;;;;;;5114408;28;20443;-80
2022/04/16 07:20:29;;;;;;;7.10;6.50;;;;;;;;;;5102685;28;20432;-78
2022/04/16 07:22:56;;;;;;;6.63;6.23;;;;;;;;;;5093030;28;20448;-79
2022/04/16 07:25:23;;;;;;;6.13;5.60;;;;;;;;;;5093019;28;20466;-79
2022/04/16 07:27:50;;;;;;;5.80;5.30;;;;;;;;;;5092154;28;20444;-78
2022/04/16 07:30:17;;;;;;;6.10;5.47;;;;;;;;;;5092476;28;20555;-79
2022/04/16 07:32:44;;;;;;;5.70;5.20;;;;;;;;;;5091653;28;20998;-80
2022/04/16 07:35:13;;;;;;;6.23;5.63;;;;;;;;;;5094490;28;20468;-79
2022/04/16 07:37:40;;;;;;;6.23;5.73;;;;;;;;;;5094974;28;20451;-78
2022/04/16 07:40:08;;;;;;;6.80;6.20;;;;;;;;;;5095693;28;20452;-79
2022/04/16 07:42:35;;;;;;;5.73;5.23;;;;;;;;;;5092744;28;20439;-79
2022/04/16 07:45:02;;;;;;;6.20;5.67;;;;;;;;;;5092787;28;20464;-79
2022/04/16 07:47:29;;;;;;;6.90;6.07;;;;;;;;;;5091829;28;20436;-79
2022/04/16 07:49:56;;;;;;;7.00;6.40;;;;;;;;;;5093502;28;20444;-80
2022/04/16 07:52:25;;;;;;;6.43;5.57;;;;;;;;;;5092260;28;20498;-79
2022/04/16 07:54:52;;;;;;;7.60;6.90;;;;;;;;;;5091458;28;20566;-79
2022/04/16 07:57:19;;;;;;;11.10;6.43;;;;;;;;;;5099372;28;20447;-80
2022/04/16 07:59:46;;;;;;;6.20;5.70;;;;;;;;;;5103605;28;20451;-80
2022/04/16 08:02:14;;;;;;;6.70;6.20;;;;;;;;;;5102292;28;20551;-79
2022/04/16 08:04:41;;;;;;;7.47;6.77;;;;;;;;;;5095581;28;20460;-79
2022/04/16 08:07:08;;;;;;;7.77;7.07;;;;;;;;;;5093258;28;20798;-79
2022/04/16 08:09:36;;;;;;;6.63;6.03;;;;;;;;;;5092345;28;20452;-81
2022/04/16 08:12:04;;;;;;;7.80;7.00;;;;;;;;;;5093734;28;20925;-79
2022/04/16 08:14:31;;;;;;;8.20;7.40;;;;;;;;;;5091799;28;20501;-79
2022/04/16 08:16:58;;;;;;;8.37;6.30;;;;;;;;;;5091859;28;20454;-78
2022/04/16 08:19:25;;;;;;;7.33;6.17;;;;;;;;;;5091781;28;20517;-79
2022/04/16 08:21:53;;;;;;;7.30;6.60;;;;;;;;;;5091838;28;20913;-79
2022/04/16 08:24:38;;;;;;;8.50;7.70;;;;;;;;;;5091077;28;20448;-79
2022/04/16 08:27:07;;;;;;;7.47;6.80;;;;;;;;;;5091247;28;20518;-80
2022/04/16 08:29:34;;;;;;;7.33;6.73;;;;;;;;;;5092009;28;20447;-79
2022/04/16 08:32:02;;;;;;;7.40;6.70;;;;;;;;;;5094494;28;20487;-78
2022/04/16 08:34:29;;;;;;;9.27;7.90;;;;;;;;;;5095102;28;20471;-79
2022/04/16 08:36:56;;;;;;;7.20;6.60;;;;;;;;;;5095786;28;20454;-80
2022/04/16 08:39:23;;;;;;;6.80;6.20;;;;;;;;;;5096083;28;20958;-79
2022/04/16 08:41:51;;;;;;;9.13;7.30;;;;;;;;;;5095832;28;20443;-80
2022/04/16 08:44:20;;;;;;;7.07;6.47;;;;;;;;;;5095497;28;20870;-79
2022/04/16 08:46:47;;;;;;;7.87;7.07;;;;;;;;;;5096493;28;20452;-79
2022/04/16 08:49:15;;;;;;;7.33;6.63;;;;;;;;;;5096470;28;20447;-79
2022/04/16 08:51:43;;;;;;;7.00;6.30;;;;;;;;;;5095720;28;20624;-79
2022/04/16 08:54:10;;;;;;;8.43;7.60;;;;;;;;;;5095907;28;20451;-79
2022/04/16 08:56:39;;;;;;;7.30;6.70;;;;;;;;;;5097091;28;20466;-78
2022/04/16 08:59:06;;;;;;;9.70;8.70;;;;;;;;;;5097247;28;20543;-80
2022/04/16 09:01:34;;;;;;;11.13;9.70;;;;;;;;;;5096743;28;20436;-79
2022/04/16 09:04:01;;;;;;;11.23;8.97;;;;;;;;;;5097223;28;20463;-79
2022/04/16 09:06:28;;;;;;;12.90;10.40;;;;;;;;;;5096056;28;20989;-79
2022/04/16 09:08:55;;;;;;;9.03;8.13;;;;;;;;;;5097727;28;20838;-79
2022/04/16 09:11:24;;;;;;;9.73;8.73;;;;;;;;;;5097213;28;20810;-78
2022/04/16 09:13:54;;;;;;;9.23;8.27;;;;;;;;;;5096851;28;20440;-79
2022/04/16 09:16:21;;;;;;;9.37;8.20;;;;;;;;;;5097164;28;20510;-79
2022/04/16 09:18:51;;;;;;;11.17;9.97;;;;;;;;;;5096595;28;20915;-79
2022/04/16 09:21:18;;;;;;;10.80;9.80;;;;;;;;;;5098053;28;20443;-79
2022/04/16 09:23:47;;;;;;;10.30;9.30;;;;;;;;;;5096655;28;20938;-80
2022/04/16 09:26:15;;;;;;;9.87;8.87;;;;;;;;;;5096611;28;20512;-80
2022/04/16 09:28:45;;;;;;;9.97;9.07;;;;;;;;;;5102028;28;20479;-79
2022/04/16 09:31:12;;;;;;;11.70;9.97;;;;;;;;;;5101986;28;20432;-79
2022/04/16 09:33:41;;;;;;;10.23;9.27;;;;;;;;;;5095678;28;20466;-79
2022/04/16 09:36:09;;;;;;;10.93;9.87;;;;;;;;;;5095880;28;20528;-79
2022/04/16 09:38:37;;;;;;;10.80;9.80;;;;;;;;;;5096165;28;20443;-79
2022/04/16 09:41:08;;;;;;;11.00;9.90;;;;;;;;;;5094898;28;20503;-79
2022/04/16 09:43:36;;;;;;;10.37;9.37;;;;;;;;;;5094724;28;20466;-79
2022/04/16 09:46:09;;;;;;;9.90;9.00;;;;;;;;;;5095229;28;20521;-81
2022/04/16 09:48:37;;;;;;;9.57;8.47;;;;;;;;;;5096650;28;20444;-79
2022/04/16 09:51:05;;;;;;;8.93;8.13;;;;;;;;;;5094928;28;20534;-78
2022/04/16 09:53:36;;;;;;;8.20;7.37;;;;;;;;;;5094583;28;20487;-79
2022/04/16 09:56:04;;;;;;;9.57;8.57;;;;;;;;;;5095831;28;20468;-80
2022/04/16 09:58:36;;;;;;;9.27;8.37;;;;;;;;;;5096773;28;20436;-80
2022/04/16 10:01:03;;;;;;;8.60;7.80;;;;;;;;;;5097590;28;20467;-79
2022/04/16 10:03:32;;;;;;;9.37;8.57;;;;;;;;;;5097819;28;20440;-79
2022/04/16 10:05:59;;;;;;;8.90;8.00;;;;;;;;;;5096489;28;20542;-79
2022/04/16 10:08:27;;;;;;;9.30;8.43;;;;;;;;;;5095266;28;20471;-79
2022/04/16 10:10:57;;;;;;;9.90;8.63;;;;;;;;;;5095158;28;20445;-80
2022/04/16 10:13:25;;;;;;;8.30;7.60;;;;;;;;;;5094323;28;20479;-80
2022/04/16 10:16:00;;;;;;;9.07;8.27;;;;;;;;;;5094790;28;20475;-79
2022/04/16 10:18:28;;;;;;;8.60;7.80;;;;;;;;;;5094446;28;20516;-79
2022/04/16 10:20:56;;;;;;;8.43;7.63;;;;;;;;;;5095717;28;20468;-78
2022/04/16 10:23:27;;;;;;;8.70;7.90;;;;;;;;;;5096109;28;20443;-78
2022/04/16 10:26:00;;;;;;;8.90;8.00;;;;;;;;;;5095843;28;20527;-79
2022/04/16 10:28:33;;;;;;;8.33;7.63;;;;;;;;;;5106705;28;20467;-79
2022/04/16 10:31:00;;;;;;;8.30;7.50;;;;;;;;;;5107532;28;20440;-79
2022/04/16 10:33:28;;;;;;;8.00;7.20;;;;;;;;;;5105564;28;20480;-80
2022/04/16 10:35:56;;;;;;;8.37;7.57;;;;;;;;;;5103281;28;20474;-79
2022/04/16 10:38:24;;;;;;;8.90;8.07;;;;;;;;;;5104415;28;20508;-78
2022/04/16 10:41:00;;;;;;;8.83;8.03;;;;;;;;;;5101216;28;20530;-80
2022/04/16 10:43:27;;;;;;;9.43;8.27;;;;;;;;;;5103629;28;20431;-79
2022/04/16 10:45:58;;;;;;;8.90;8.00;;;;;;;;;;5096536;28;20459;-79
2022/04/16 10:48:25;;;;;;;8.37;7.57;;;;;;;;;;5093806;28;20455;-80
2022/04/16 10:50:53;;;;;;;8.10;7.30;;;;;;;;;;5093206;28;20720;-80
2022/04/16 10:53:28;;;;;;;7.23;6.53;;;;;;;;;;5092121;28;20610;-80
2022/04/16 10:55:55;;;;;;;7.87;7.07;;;;;;;;;;5093704;28;20459;-80
2022/04/16 10:58:30;;;;;;;8.00;7.20;;;;;;;;;;5093781;28;20767;-79
2022/04/16 11:01:05;;;;;;;7.57;6.90;;;;;;;;;;5094357;28;20438;-79
2022/04/16 11:03:33;;;;;;;6.83;6.23;;;;;;;;;;5094112;28;20446;-80
2022/04/16 11:06:04;;;;;;;7.00;6.30;;;;;;;;;;5101497;28;20499;-80
2022/04/16 11:08:31;;;;;;;7.40;6.77;;;;;;;;;;5098863;28;20436;-80
2022/04/16 11:10:59;;;;;;;5.40;4.90;;;;;;;;;;5093771;28;20452;-80
2022/04/16 11:13:26;;;;;;;5.30;4.80;;;;;;;;;;5100313;28;20529;-79
2022/04/16 11:15:57;;;;;;;5.20;4.70;;;;;;;;;;5099906;28;20459;-79
2022/04/16 11:18:24;;;;;;;5.20;4.70;;;;;;;;;;5099448;28;20914;-79
2022/04/16 11:20:57;;;;;;;6.00;5.43;;;;;;;;;;5094566;28;20444;-80
2022/04/16 11:23:28;;;;;;;6.03;5.43;;;;;;;;;;5093717;28;20432;-79
2022/04/16 11:34:20;;;;;;;5.30;4.90;;;;;;;;;;5092053;28;20426;-80
2022/04/16 11:36:51;;;;;;;5.07;4.67;;;;;;;;;;5092814;28;20469;-79
2022/04/16 11:39:18;;;;;;;5.53;5.07;;;;;;;;;;5093934;28;20467;-79
2022/04/16 11:41:49;;;;;;;4.73;4.33;;;;;;;;;;5093425;28;20930;-79
2022/04/16 11:44:16;;;;;;;4.50;4.10;;;;;;;;;;5092846;28;20439;-80
2022/04/16 11:46:44;;;;;;;5.77;5.30;;;;;;;;;;5093871;28;20464;-79
2022/04/16 11:49:12;;;;;;;5.60;5.10;;;;;;;;;;5093612;28;20439;-78
2022/04/16 11:51:39;;;;;;;5.90;5.40;;;;;;;;;;5092314;28;20481;-80
2022/04/16 11:54:07;;;;;;;5.83;5.30;;;;;;;;;;5092059;28;20513;-79
2022/04/16 11:56:34;;;;;;;6.40;5.73;;;;;;;;;;5093010;28;20499;-80
2022/04/16 11:59:01;;;;;;;6.10;5.50;;;;;;;;;;5092422;28;20443;-79
2022/04/16 12:01:28;;;;;;;6.47;5.93;;;;;;;;;;5092685;28;20467;-80
2022/04/16 12:04:07;;;;;;;6.40;5.80;;;;;;;;;;5092664;28;20438;-80
2022/04/16 12:06:37;;;;;;;5.20;4.80;;;;;;;;;;5093202;28;20467;-79
2022/04/16 12:09:04;;;;;;;5.53;5.03;;;;;;;;;;5092853;28;20479;-79
2022/04/16 12:11:31;;;;;;;5.80;5.30;;;;;;;;;;5092456;28;20919;-79
2022/04/16 12:13:58;;;;;;;5.60;5.20;;;;;;;;;;5092502;28;20479;-79
2022/04/16 12:16:25;;;;;;;6.00;5.50;;;;;;;;;;5093394;28;20624;-80
2022/04/16 12:18:54;;;;;;;5.63;5.13;;;;;;;;;;5093897;28;20456;-80
2022/04/16 12:21:23;;;;;;;6.00;5.50;;;;;;;;;;5093893;28;20444;-78
2022/04/16 12:23:50;;;;;;;5.53;5.10;;;;;;;;;;5093790;28;20451;-80
2022/04/16 12:26:18;;;;;;;6.00;5.43;;;;;;;;;;5093652;28;20480;-81
2022/04/16 12:28:51;;;;;;;5.60;5.10;;;;;;;;;;5095138;28;20450;-80
2022/04/16 12:31:26;;;;;;;5.50;5.03;;;;;;;;;;5095105;28;20504;-80
2022/04/16 12:33:53;;;;;;;5.30;4.90;;;;;;;;;;5093825;28;20514;-81
2022/04/16 12:36:20;;;;;;;5.47;4.97;;;;;;;;;;5094498;28;20829;-80
2022/04/16 12:38:48;;;;;;;6.30;5.80;;;;;;;;;;5094725;28;20439;-79
2022/04/16 12:41:17;;;;;;;5.90;5.40;;;;;;;;;;5094564;28;20555;-81
2022/04/16 12:43:45;;;;;;;5.47;5.00;;;;;;;;;;5094258;28;20444;-79
2022/04/16 12:46:12;;;;;;;5.20;4.80;;;;;;;;;;5095069;28;20468;-80
2022/04/16 12:48:39;;;;;;;5.23;4.80;;;;;;;;;;5095804;28;20440;-79
2022/04/16 12:51:06;;;;;;;5.30;4.90;;;;;;;;;;5093798;28;20436;-80
2022/04/16 12:53:34;;;;;;;4.60;4.17;;;;;;;;;;5094225;28;20482;-81
2022/04/16 12:56:02;;;;;;;5.60;5.10;;;;;;;;;;5094333;28;20479;-79
2022/04/16 12:58:29;;;;;;;5.20;4.80;;;;;;;;;;5095817;28;20455;-79
2022/04/16 13:00:56;;;;;;;4.90;4.50;;;;;;;;;;5093736;28;20439;-80
2022/04/16 13:03:24;;;;;;;5.00;4.60;;;;;;;;;;5092233;28;20443;-80
2022/04/16 13:05:51;;;;;;;5.37;4.97;;;;;;;;;;5092613;28;20467;-79
2022/04/16 13:08:18;;;;;;;5.30;4.80;;;;;;;;;;5092121;28;20956;-79
2022/04/16 13:10:45;;;;;;;4.90;4.50;;;;;;;;;;5093520;28;20450;-79
2022/04/16 13:13:13;;;;;;;5.50;5.00;;;;;;;;;;5094543;28;20480;-80
2022/04/16 13:15:40;;;;;;;4.77;4.40;;;;;;;;;;5098377;28;20468;-80
2022/04/16 13:18:07;;;;;;;4.30;4.00;;;;;;;;;;5105293;28;20470;-80
2022/04/16 13:20:34;;;;;;;4.00;3.70;;;;;;;;;;5105650;28;20439;-79
2022/04/16 13:23:01;;;;;;;4.27;3.90;;;;;;;;;;5104736;28;20439;-80
2022/04/16 13:25:32;;;;;;;4.30;4.00;;;;;;;;;;5105400;28;20536;-80
2022/04/16 13:27:59;;;;;;;3.93;3.63;;;;;;;;;;5099877;28;20444;-80
2022/04/16 13:30:28;;;;;;;4.10;3.80;;;;;;;;;;5097509;28;20432;-80
2022/04/16 13:32:55;;;;;;;4.53;4.13;;;;;;;;;;5096643;28;20479;-80
2022/04/16 13:35:22;;;;;;;4.73;4.33;;;;;;;;;;5096349;28;20478;-78
2022/04/16 13:37:49;;;;;;;4.77;4.37;;;;;;;;;;5096153;28;20474;-79
2022/04/16 13:43:00;;;;;;;5.30;4.80;;;;;;;;;;5074839;28;20503;-79
2022/04/16 13:45:28;;;;;;;5.03;4.63;;;;;;;;;;5095105;28;20456;-79
2022/04/16 13:47:55;;;;;;;4.70;4.30;;;;;;;;;;5095421;28;20432;-78
2022/04/16 13:50:23;;;;;;;5.37;4.87;;;;;;;;;;5095646;28;20974;-79
2022/04/16 13:52:50;;;;;;;4.77;4.47;;;;;;;;;;5095346;28;20440;-79
2022/04/16 13:55:17;;;;;;;4.97;4.50;;;;;;;;;;5098221;28;20468;-79
2022/04/16 13:57:44;;;;;;;4.30;3.90;;;;;;;;;;5097244;28;20444;-80
2022/04/16 14:00:12;;;;;;;4.50;4.10;;;;;;;;;;5098472;28;20792;-79
2022/04/16 14:02:43;;;;;;;5.03;4.63;;;;;;;;;;5100158;28;20946;-79
2022/04/16 14:07:55;;;;;;;5.73;5.27;;;;;;;;;;5080332;28;20428;-79
2022/04/16 14:10:22;;;;;;;4.43;4.13;;;;;;;;;;5079359;28;20440;-79
2022/04/16 14:12:49;;;;;;;4.23;3.93;;;;;;;;;;5080663;28;20437;-79
2022/04/16 14:15:16;;;;;;;4.20;3.90;;;;;;;;;;5082251;28;20471;-78
2022/04/16 14:17:44;;;;;;;4.50;4.10;;;;;;;;;;5084598;28;20573;-79
2022/04/16 14:20:12;;;;;;;4.80;4.40;;;;;;;;;;5084028;28;20437;-79
2022/04/16 14:22:39;;;;;;;4.63;4.23;;;;;;;;;;5081742;28;20448;-80
2022/04/16 14:25:06;;;;;;;4.53;4.20;;;;;;;;;;5082467;28;20995;-79
2022/04/16 14:27:33;;;;;;;4.23;3.83;;;;;;;;;;5082818;28;20486;-78
2022/04/16 14:30:00;;;;;;;5.60;4.80;;;;;;;;;;5081764;28;20471;-79
2022/04/16 14:32:28;;;;;;;4.87;4.47;;;;;;;;;;5084017;28;20440;-78
2022/04/16 14:34:56;;;;;;;4.60;4.20;;;;;;;;;;5085224;28;20483;-79
2022/04/16 14:37:23;;;;;;;5.03;4.60;;;;;;;;;;5086935;28;20616;-79
2022/04/16 14:39:50;;;;;;;5.07;4.67;;;;;;;;;;5083562;28;20448;-78
2022/04/16 14:42:17;;;;;;;4.77;4.37;;;;;;;;;;5086873;28;20440;-79
2022/04/16 14:44:50;;;;;;;4.50;4.10;;;;;;;;;;5086740;28;20457;-79
2022/04/16 14:47:18;;;;;;;5.37;4.30;;;;;;;;;;5088051;28;20452;-79
2022/04/16 14:49:45;;;;;;;5.53;4.53;;;;;;;;;;5088984;28;20437;-79
2022/04/16 14:52:13;;;;;;;4.43;4.10;;;;;;;;;;5083652;28;20441;-79
2022/04/16 14:54:40;;;;;;;4.67;4.27;;;;;;;;;;5086604;28;20488;-80
2022/04/16 14:57:08;;;;;;;4.40;4.10;;;;;;;;;;5081447;28;20437;-79
2022/04/16 14:59:35;;;;;;;4.23;3.93;;;;;;;;;;5078100;28;20432;-79
2022/04/16 15:02:02;;;;;;;3.87;3.47;;;;;;;;;;5079491;28;20479;-79
2022/04/16 15:04:29;;;;;;;4.43;4.03;;;;;;;;;;5076358;28;20444;-79
2022/04/16 15:06:56;;;;;;;3.47;3.20;;;;;;;;;;5090175;28;20443;-79
2022/04/16 15:09:25;;;;;;;4.40;4.10;;;;;;;;;;5096943;28;20455;-79
2022/04/16 15:11:52;;;;;;;4.83;4.33;;;;;;;;;;5100454;28;20428;-79
2022/04/16 15:14:19;;;;;;;5.53;4.40;;;;;;;;;;5105785;28;20483;-79